createdAt,value
2023-04-18T00:00:12.242Z,53.27
2023-04-18T00:02:40.962Z,49.13
2023-04-18T00:05:10.032Z,49.43
2023-04-18T00:10:21.243Z,48.27
2023-04-18T00:12:51.543Z,44.33
2023-04-18T00:15:19.961Z,42.17
2023-04-18T00:17:49.237Z,41.70
2023-04-18T00:20:17.754Z,40.30
2023-04-18T00:22:46.760Z,39.03
2023-04-18T00:25:15.314Z,39.10
2023-04-18T00:27:44.104Z,35.97
2023-04-18T00:30:14.479Z,37.77
2023-04-18T00:32:43.038Z,36.47
2023-04-18T00:35:11.489Z,36.40
2023-04-18T00:37:40.447Z,36.50
2023-04-18T00:40:09.889Z,33.83
2023-04-18T00:42:38.365Z,33.97
2023-04-18T00:45:07.600Z,33.97
2023-04-18T00:47:37.748Z,33.83
2023-04-18T00:50:07.319Z,33.77
2023-04-18T00:52:36.086Z,32.53
2023-04-18T00:55:04.934Z,33.30
2023-04-18T00:57:33.572Z,32.70
2023-04-18T01:00:04.912Z,32.90
2023-04-18T01:02:35.831Z,33.20
2023-04-18T01:05:06.543Z,33.90
2023-04-18T01:07:37.344Z,34.03
2023-04-18T01:10:06.461Z,33.63
2023-04-18T01:12:35.054Z,33.23
2023-04-18T01:15:04.099Z,32.83
2023-04-18T01:17:34.692Z,34.17
2023-04-18T01:20:05.508Z,34.00
2023-04-18T01:22:35.872Z,33.63
2023-04-18T01:25:10.299Z,31.47
2023-04-18T01:27:38.787Z,33.60
2023-04-18T01:30:08.229Z,35.23
2023-04-18T01:32:36.746Z,34.87
2023-04-18T01:35:06.114Z,34.17
2023-04-18T01:37:34.521Z,37.27
2023-04-18T01:40:03.570Z,37.17
2023-04-18T01:42:33.259Z,38.13
2023-04-18T01:45:01.700Z,39.00
2023-04-18T01:47:30.641Z,39.60
2023-04-18T01:49:59.047Z,38.57
2023-04-18T01:52:27.870Z,40.70
2023-04-18T01:54:56.312Z,39.60
2023-04-18T01:57:25.170Z,40.67
2023-04-18T01:59:54.773Z,43.07
2023-04-18T02:02:23.373Z,43.03
2023-04-18T02:04:52.008Z,34.03
2023-04-18T02:07:20.805Z,38.63
2023-04-18T02:09:49.250Z,41.70
2023-04-18T02:12:17.658Z,42.57
2023-04-18T02:14:46.108Z,42.67
2023-04-18T02:17:15.912Z,42.87
2023-04-18T02:19:44.401Z,44.43
2023-04-18T02:22:12.831Z,44.90
2023-04-18T02:24:41.238Z,45.53
2023-04-18T02:27:11.480Z,46.43
2023-04-18T02:29:39.962Z,46.47
2023-04-18T02:32:09.186Z,45.47
2023-04-18T02:34:39.553Z,48.43
2023-04-18T02:37:07.942Z,47.53
2023-04-18T02:39:36.477Z,47.30
2023-04-18T02:42:04.949Z,44.20
2023-04-18T02:44:33.480Z,45.60
2023-04-18T02:47:02.369Z,45.53
2023-04-18T02:49:30.726Z,47.50
2023-04-18T02:52:00.436Z,48.93
2023-04-18T02:54:28.801Z,49.93
2023-04-18T02:56:57.260Z,46.57
2023-04-18T02:59:25.734Z,46.10
2023-04-18T03:01:54.125Z,47.77
2023-04-18T03:04:22.703Z,47.60
2023-04-18T03:06:51.492Z,45.67
2023-04-18T03:09:21.091Z,47.37
2023-04-18T03:11:49.494Z,45.90
2023-04-18T03:14:17.878Z,47.33
2023-04-18T03:16:46.663Z,46.37
2023-04-18T03:19:15.124Z,46.67
2023-04-18T03:21:43.563Z,47.37
2023-04-18T03:24:12.343Z,47.20
2023-04-18T03:26:42.437Z,48.57
2023-04-18T03:29:10.864Z,48.37
2023-04-18T03:31:39.315Z,49.13
2023-04-18T03:34:07.849Z,49.07
2023-04-18T03:36:36.359Z,48.87
2023-04-18T03:39:04.855Z,46.77
2023-04-18T03:41:33.329Z,46.23
2023-04-18T03:44:03.138Z,42.37
2023-04-18T03:46:31.903Z,43.67
2023-04-18T03:49:00.861Z,43.13
2023-04-18T03:51:31.345Z,40.53
2023-04-18T03:53:59.620Z,39.00
2023-04-18T03:56:28.370Z,39.03
2023-04-18T03:58:56.775Z,38.50
2023-04-18T04:01:26.509Z,37.47
2023-04-18T04:03:55.056Z,37.67
2023-04-18T04:06:23.632Z,36.33
2023-04-18T04:08:52.043Z,35.53
2023-04-18T04:11:20.520Z,36.13
2023-04-18T04:13:49.008Z,33.77
2023-04-18T04:16:17.485Z,32.70
2023-04-18T04:18:47.070Z,31.63
2023-04-18T04:21:15.907Z,31.93
2023-04-18T04:23:44.332Z,31.07
2023-04-18T04:26:15.214Z,31.40
2023-04-18T04:28:46.545Z,30.93
2023-04-18T04:31:16.405Z,30.40
2023-04-18T04:33:46.704Z,30.53
2023-04-18T04:36:18.776Z,27.70
2023-04-18T04:38:47.465Z,29.43
2023-04-18T04:41:16.117Z,29.93
2023-04-18T04:43:46.603Z,30.00
2023-04-18T04:46:15.838Z,27.63
2023-04-18T04:48:44.295Z,28.07
2023-04-18T04:51:13.956Z,28.47
2023-04-18T04:53:42.392Z,27.20
2023-04-18T04:56:11.049Z,26.70
2023-04-18T04:58:39.608Z,26.87
2023-04-18T05:01:09.203Z,26.70
2023-04-18T05:03:37.812Z,27.67
2023-04-18T05:06:07.189Z,25.97
2023-04-18T05:08:36.808Z,27.43
2023-04-18T05:11:05.279Z,27.50
2023-04-18T05:13:33.676Z,28.57
2023-04-18T05:16:03.334Z,25.03
2023-04-18T05:18:34.369Z,26.97
2023-04-18T05:21:03.935Z,25.67
2023-04-18T05:23:32.496Z,26.73
2023-04-18T05:26:02.545Z,27.77
2023-04-18T05:28:31.002Z,27.33
2023-04-18T05:31:02.168Z,25.83
2023-04-18T05:33:31.067Z,25.30
2023-04-18T05:35:59.876Z,25.03
2023-04-18T05:38:28.466Z,25.57
2023-04-18T05:41:00.242Z,24.53
2023-04-18T05:43:29.944Z,24.37
2023-04-18T05:45:58.659Z,23.30
2023-04-18T05:48:27.272Z,22.73
2023-04-18T05:50:55.816Z,21.97
2023-04-18T05:53:24.344Z,22.33
2023-04-18T05:55:52.862Z,22.20
2023-04-18T05:58:21.262Z,21.97
2023-04-18T06:00:51.242Z,22.47
2023-04-18T06:03:19.930Z,21.57
2023-04-18T06:05:48.739Z,22.13
2023-04-18T06:08:17.755Z,21.50
2023-04-18T06:10:46.223Z,20.97
2023-04-18T06:13:14.617Z,20.90
2023-04-18T06:15:43.031Z,20.13
2023-04-18T06:18:12.707Z,18.83
2023-04-18T06:20:42.182Z,18.90
2023-04-18T06:23:10.753Z,17.57
2023-04-18T06:25:39.160Z,18.37
2023-04-18T06:28:07.889Z,16.97
2023-04-18T06:30:36.645Z,17.47
2023-04-18T06:33:05.120Z,16.27
2023-04-18T06:35:34.917Z,18.07
2023-04-18T06:38:03.705Z,15.90
2023-04-18T06:40:32.105Z,15.87
2023-04-18T06:43:00.527Z,14.80
2023-04-18T06:45:29.093Z,13.40
2023-04-18T06:47:59.940Z,14.93
2023-04-18T06:50:28.372Z,15.07
2023-04-18T06:52:58.273Z,14.43
2023-04-18T06:55:26.652Z,13.27
2023-04-18T06:57:55.108Z,13.40
2023-04-18T07:00:23.621Z,13.33
2023-04-18T07:02:52.262Z,11.37
2023-04-18T07:05:20.818Z,13.13
2023-04-18T07:07:49.226Z,13.60
2023-04-18T07:10:18.867Z,12.93
2023-04-18T07:12:47.636Z,12.80
2023-04-18T07:15:16.065Z,12.07
2023-04-18T07:17:44.598Z,12.33
2023-04-18T07:20:14.408Z,11.40
2023-04-18T07:22:42.962Z,11.27
2023-04-18T07:25:11.496Z,12.33
2023-04-18T07:27:41.323Z,11.07
2023-04-18T07:30:10.555Z,11.73
2023-04-18T07:32:39.019Z,10.50
2023-04-18T07:35:08.052Z,10.93
2023-04-18T07:37:36.588Z,10.33
2023-04-18T07:40:05.739Z,10.50
2023-04-18T07:42:34.291Z,9.50
2023-04-18T07:45:04.251Z,10.17
2023-04-18T07:47:33.569Z,10.63
2023-04-18T07:50:02.714Z,9.70
2023-04-18T07:52:31.186Z,10.23
2023-04-18T07:54:59.652Z,9.90
2023-04-18T07:57:28.280Z,9.07
2023-04-18T07:59:56.934Z,9.57
2023-04-18T08:02:26.932Z,9.43
2023-04-18T08:04:56.226Z,8.73
2023-04-18T08:07:25.353Z,8.03
2023-04-18T08:09:53.767Z,9.83
2023-04-18T08:12:22.227Z,9.70
2023-04-18T08:14:51.034Z,9.70
2023-04-18T08:17:19.473Z,9.23
2023-04-18T08:19:49.112Z,8.67
2023-04-18T08:22:17.490Z,9.17
2023-04-18T08:25:01.122Z,8.27
2023-04-18T08:27:32.766Z,9.20
2023-04-18T08:30:03.862Z,8.37
2023-04-18T08:32:33.162Z,8.83
2023-04-18T08:35:03.871Z,8.07
2023-04-18T08:37:35.316Z,7.87
2023-04-18T08:40:05.242Z,7.90
2023-04-18T08:42:33.791Z,7.27
2023-04-18T08:45:02.695Z,7.07
2023-04-18T08:47:31.435Z,6.33
2023-04-18T08:49:59.978Z,7.50
2023-04-18T08:52:31.084Z,7.67
2023-04-18T08:54:59.688Z,6.67
2023-04-18T08:57:28.078Z,6.90
2023-04-18T08:59:56.505Z,7.73
2023-04-18T09:02:39.059Z,7.40
2023-04-18T09:05:13.342Z,7.33
2023-04-18T09:09:46.550Z,8.67
2023-04-18T09:12:18.273Z,6.63
2023-04-18T09:14:50.118Z,8.83
2023-04-18T09:17:33.729Z,9.73
2023-04-18T09:20:05.227Z,8.93
2023-04-18T09:22:50.450Z,7.23
2023-04-18T09:25:34.738Z,8.80
2023-04-18T09:28:04.062Z,9.23
2023-04-18T09:30:34.452Z,10.00
2023-04-18T09:33:06.694Z,7.77
2023-04-18T09:35:35.919Z,9.57
2023-04-18T09:38:04.454Z,10.07
2023-04-18T09:40:34.546Z,9.77
2023-04-18T09:43:18.201Z,9.93
2023-04-18T09:45:48.626Z,10.67
2023-04-18T09:48:17.161Z,9.43
2023-04-18T09:50:47.435Z,11.77
2023-04-18T09:53:20.792Z,10.97
2023-04-18T09:55:56.965Z,11.03
2023-04-18T09:58:30.420Z,11.00
2023-04-18T10:01:00.072Z,13.57
2023-04-18T10:03:35.372Z,12.33
2023-04-18T10:06:04.964Z,12.63
2023-04-18T10:08:34.034Z,10.77
2023-04-18T10:11:03.688Z,11.10
2023-04-18T10:13:33.280Z,11.13
2023-04-18T10:16:02.025Z,14.15
2023-04-18T10:18:30.528Z,11.35
2023-04-18T10:21:03.348Z,16.03
2023-04-18T10:23:41.720Z,17.80
2023-04-18T10:26:12.504Z,15.30
2023-04-18T10:28:58.127Z,14.13
2023-04-18T10:31:27.808Z,14.33
2023-04-18T10:36:30.239Z,16.47
2023-04-18T10:39:03.237Z,16.17
2023-04-18T10:41:33.927Z,17.23
2023-04-18T10:44:22.356Z,19.33
2023-04-18T10:47:27.252Z,17.13
2023-04-18T10:49:58.064Z,17.07
2023-04-18T10:52:27.316Z,17.67
2023-04-18T10:55:09.267Z,17.57
2023-04-18T10:57:43.397Z,19.58
2023-04-18T11:00:14.028Z,19.50
2023-04-18T11:02:49.511Z,19.77
2023-04-18T11:05:22.551Z,18.47
2023-04-18T11:07:51.514Z,17.27
2023-04-18T11:10:21.312Z,20.03
2023-04-18T11:12:51.375Z,20.47
2023-04-18T11:15:22.438Z,20.67
2023-04-18T11:17:59.383Z,19.80
2023-04-18T11:20:28.840Z,17.43
2023-04-18T11:22:58.727Z,21.10
2023-04-18T11:25:29.868Z,20.67
2023-04-18T11:28:03.794Z,19.67
2023-04-18T11:30:38.552Z,19.87
2023-04-18T11:33:08.610Z,19.60
2023-04-18T11:35:39.585Z,18.33
2023-04-18T11:38:09.310Z,17.37
2023-04-18T11:40:38.351Z,19.20
2023-04-18T11:43:09.121Z,19.13
2023-04-18T11:45:37.952Z,18.70
2023-04-18T11:48:06.981Z,19.90
2023-04-18T11:50:38.410Z,20.03
2023-04-18T11:53:06.902Z,18.97
2023-04-18T11:55:35.494Z,21.00
2023-04-18T11:58:04.544Z,21.40
2023-04-18T12:00:37.338Z,16.75
2023-04-18T12:03:08.182Z,20.48
2023-04-18T12:05:39.025Z,19.98
2023-04-18T12:08:09.837Z,20.02
2023-04-18T12:10:39.628Z,18.75
2023-04-18T12:13:09.587Z,17.35
2023-04-18T12:15:42.200Z,19.48
2023-04-18T12:18:12.201Z,16.83
2023-04-18T12:20:46.513Z,18.27
2023-04-18T12:23:31.004Z,19.80
2023-04-18T12:26:03.982Z,20.45
2023-04-18T12:28:33.519Z,19.88
2023-04-18T12:31:06.041Z,20.70
2023-04-18T12:33:35.886Z,20.35
2023-04-18T12:36:05.552Z,17.38
2023-04-18T12:38:34.080Z,19.40
2023-04-18T12:41:02.952Z,19.52
2023-04-18T12:43:31.370Z,19.23
2023-04-18T12:46:00.769Z,17.52
2023-04-18T12:48:30.870Z,18.15
2023-04-18T12:50:59.376Z,20.15
2023-04-18T12:53:27.800Z,19.95
2023-04-18T12:55:56.247Z,18.00
2023-04-18T12:58:24.623Z,16.10
2023-04-18T13:00:53.094Z,16.48
2023-04-18T13:03:21.721Z,17.95
2023-04-18T13:05:53.829Z,19.02
2023-04-18T13:08:22.927Z,21.25
2023-04-18T13:10:51.655Z,19.08
2023-04-18T13:13:20.093Z,17.77
2023-04-18T13:15:48.618Z,17.30
2023-04-18T13:18:17.223Z,17.40
2023-04-18T13:20:45.997Z,17.25
2023-04-18T13:23:15.628Z,18.77
2023-04-18T13:25:44.296Z,18.45
2023-04-18T13:28:12.846Z,15.48
2023-04-18T13:30:41.401Z,16.38
2023-04-18T13:33:10.665Z,10.77
2023-04-18T13:35:39.047Z,14.68
2023-04-18T13:38:07.519Z,14.30
2023-04-18T13:40:38.785Z,12.75
2023-04-18T13:43:07.311Z,13.55
2023-04-18T13:45:35.748Z,13.70
2023-04-18T13:48:04.626Z,14.63
2023-04-18T13:50:33.243Z,13.52
2023-04-18T13:53:01.671Z,13.65
2023-04-18T13:55:30.064Z,13.68
2023-04-18T13:57:59.973Z,12.45
2023-04-18T14:00:28.530Z,12.80
2023-04-18T14:02:57.604Z,14.25
2023-04-18T14:05:26.285Z,13.32
2023-04-18T14:07:56.531Z,12.70
2023-04-18T14:10:25.010Z,13.25
2023-04-18T14:12:53.581Z,13.05
2023-04-18T14:15:23.330Z,12.02
2023-04-18T14:17:51.864Z,12.32
2023-04-18T14:20:20.402Z,12.85
2023-04-18T14:22:52.394Z,12.98
2023-04-18T14:25:22.271Z,12.02
2023-04-18T14:27:51.194Z,9.73
2023-04-18T14:30:19.692Z,9.73
2023-04-18T14:32:49.463Z,9.95
2023-04-18T14:35:17.968Z,9.55
2023-04-18T14:37:46.485Z,10.50
2023-04-18T14:40:15.084Z,10.60
2023-04-18T14:42:43.478Z,10.25
2023-04-18T14:45:12.669Z,11.13
2023-04-18T14:47:42.190Z,10.90
2023-04-18T14:50:12.933Z,10.02
2023-04-18T14:52:41.775Z,9.90
2023-04-18T14:55:11.014Z,10.48
2023-04-18T14:57:40.021Z,10.32
2023-04-18T15:00:12.101Z,9.93
2023-04-18T15:02:40.819Z,9.82
2023-04-18T15:05:12.214Z,10.40
2023-04-18T15:07:43.059Z,9.77
2023-04-18T15:10:13.074Z,9.73
2023-04-18T15:12:44.193Z,10.13
2023-04-18T15:15:12.825Z,9.77
2023-04-18T15:17:41.671Z,9.07
2023-04-18T15:20:12.105Z,9.27
2023-04-18T15:22:40.523Z,8.68
2023-04-18T15:25:09.556Z,8.73
2023-04-18T15:27:38.185Z,7.07
2023-04-18T15:30:08.382Z,7.70
2023-04-18T15:32:36.972Z,8.63
2023-04-18T15:35:06.589Z,9.50
2023-04-18T15:37:36.359Z,10.07
2023-04-18T15:40:06.897Z,9.17
2023-04-18T15:42:35.346Z,9.50
2023-04-18T15:45:05.290Z,9.33
2023-04-18T15:47:35.235Z,10.50
2023-04-18T15:50:04.063Z,10.73
2023-04-18T15:52:32.596Z,10.73
2023-04-18T15:55:02.236Z,10.83
2023-04-18T15:57:31.048Z,9.30
2023-04-18T15:59:59.753Z,11.50
2023-04-18T16:02:28.433Z,11.05
2023-04-18T16:04:56.968Z,11.45
2023-04-18T16:07:25.810Z,12.35
2023-04-18T16:09:54.334Z,11.82
2023-04-18T16:12:24.175Z,12.65
2023-04-18T16:14:52.599Z,12.50
2023-04-18T16:17:20.928Z,12.68
2023-04-18T16:19:49.376Z,13.70
2023-04-18T16:22:17.819Z,12.93
2023-04-18T16:24:46.224Z,12.32
2023-04-18T16:27:14.886Z,13.82
2023-04-18T16:29:45.038Z,14.30
2023-04-18T16:32:13.573Z,14.67
2023-04-18T16:34:42.078Z,14.67
2023-04-18T16:37:10.780Z,16.17
2023-04-18T16:39:39.435Z,15.87
2023-04-18T16:42:07.862Z,16.20
2023-04-18T16:44:36.423Z,17.57
2023-04-18T16:47:08.552Z,15.40
2023-04-18T16:49:37.565Z,16.73
2023-04-18T16:52:06.048Z,21.10
2023-04-18T16:54:34.473Z,21.77
2023-04-18T16:57:03.406Z,18.47
2023-04-18T16:59:31.863Z,14.33
2023-04-18T17:02:00.926Z,15.47
2023-04-18T17:04:30.800Z,15.85
2023-04-18T17:06:59.477Z,15.75
2023-04-18T17:09:28.516Z,15.07
2023-04-18T17:11:57.948Z,9.25
2023-04-18T17:14:26.428Z,16.23
2023-04-18T17:16:55.144Z,17.27
2023-04-18T17:19:24.608Z,18.92
2023-04-18T17:21:54.528Z,20.63
2023-04-18T17:24:23.606Z,18.75
2023-04-18T17:26:52.294Z,17.23
2023-04-18T17:29:22.363Z,18.58
2023-04-18T17:31:51.535Z,18.30
2023-04-18T17:34:20.157Z,18.67
2023-04-18T17:36:48.684Z,18.33
2023-04-18T17:39:18.746Z,18.20
2023-04-18T17:41:47.394Z,17.90
2023-04-18T17:44:15.987Z,18.55
2023-04-18T17:46:44.691Z,17.63
2023-04-18T17:49:13.317Z,17.90
2023-04-18T17:51:42.073Z,17.53
2023-04-18T17:54:11.200Z,17.77
2023-04-18T17:56:41.362Z,18.15
2023-04-18T17:59:09.901Z,20.53
2023-04-18T18:01:39.583Z,18.80
2023-04-18T18:04:08.484Z,20.40
2023-04-18T18:06:37.014Z,21.53
2023-04-18T18:09:05.641Z,21.97
2023-04-18T18:11:34.053Z,21.70
2023-04-18T18:14:03.972Z,21.87
2023-04-18T18:16:32.479Z,21.83
2023-04-18T18:19:01.063Z,21.57
2023-04-18T18:21:29.500Z,19.27
2023-04-18T18:23:57.925Z,23.47
2023-04-18T18:26:27.133Z,23.23
2023-04-18T18:28:55.805Z,22.37
2023-04-18T18:31:25.899Z,20.17
2023-04-18T18:33:54.343Z,22.90
2023-04-18T18:36:22.983Z,22.70
2023-04-18T18:38:51.398Z,22.93
2023-04-18T18:41:19.852Z,22.17
2023-04-18T18:43:48.230Z,23.73
2023-04-18T18:46:17.065Z,23.73
2023-04-18T18:48:48.188Z,24.80
2023-04-18T18:51:19.172Z,23.83
2023-04-18T18:53:47.863Z,23.27
2023-04-18T18:56:16.450Z,22.87
2023-04-18T18:58:44.989Z,23.73
2023-04-18T19:01:13.415Z,23.10
2023-04-18T19:03:42.116Z,23.97
2023-04-18T19:06:12.012Z,23.33
2023-04-18T19:08:40.433Z,23.97
2023-04-18T19:11:09.662Z,24.47
2023-04-18T19:13:38.076Z,25.87
2023-04-18T19:16:07.335Z,24.90
2023-04-18T19:18:36.060Z,25.13
2023-04-18T19:21:04.682Z,25.47
2023-04-18T19:23:34.491Z,26.30
2023-04-18T19:26:03.258Z,25.87
2023-04-18T19:28:31.961Z,25.43
2023-04-18T19:31:00.424Z,25.23
2023-04-18T19:33:29.353Z,24.73
2023-04-18T19:35:57.665Z,23.97
2023-04-18T19:38:26.107Z,26.23
2023-04-18T19:40:55.878Z,25.97
2023-04-18T19:43:24.288Z,23.90
2023-04-18T19:45:55.074Z,24.80
2023-04-18T19:48:23.913Z,25.17
2023-04-18T19:50:52.433Z,24.23
2023-04-18T19:53:20.957Z,24.43
2023-04-18T19:55:49.484Z,24.33
2023-04-18T19:58:37.996Z,24.90
2023-04-18T20:01:07.641Z,26.30
2023-04-18T20:03:36.557Z,25.73
2023-04-18T20:06:05.942Z,26.33
2023-04-18T20:08:35.832Z,26.23
2023-04-18T20:11:04.804Z,25.80
2023-04-18T20:13:33.370Z,26.57
2023-04-18T20:16:03.768Z,26.83
2023-04-18T20:18:34.018Z,27.07
2023-04-18T20:21:03.237Z,26.17
2023-04-18T20:23:31.744Z,27.37
2023-04-18T20:26:00.521Z,25.67
2023-04-18T20:28:28.799Z,26.37
2023-04-18T20:30:57.434Z,25.03
2023-04-18T20:33:27.141Z,26.03
2023-04-18T20:35:55.829Z,27.47
2023-04-18T20:38:25.830Z,26.03
2023-04-18T20:40:55.902Z,26.77
2023-04-18T20:43:24.774Z,26.83
2023-04-18T20:45:54.044Z,27.07
2023-04-18T20:48:22.572Z,27.33
2023-04-18T20:50:52.205Z,27.63
2023-04-18T20:53:21.955Z,28.20
2023-04-18T20:55:50.562Z,28.13
2023-04-18T20:58:19.118Z,27.53
2023-04-18T21:00:48.385Z,28.33
2023-04-18T21:03:17.287Z,28.63
2023-04-18T21:05:46.438Z,29.20
2023-04-18T21:08:16.216Z,28.93
2023-04-18T21:10:44.729Z,27.80
2023-04-18T21:13:13.218Z,28.53
2023-04-18T21:15:42.795Z,27.87
2023-04-18T21:18:11.571Z,28.17
2023-04-18T21:20:39.992Z,28.67
2023-04-18T21:23:08.423Z,28.77
2023-04-18T21:25:38.091Z,26.73
2023-04-18T21:28:07.000Z,28.27
2023-04-18T21:30:35.576Z,28.37
2023-04-18T21:33:04.101Z,28.53
2023-04-18T21:35:32.600Z,28.47
2023-04-18T21:38:01.099Z,28.33
2023-04-18T21:40:30.735Z,27.20
2023-04-18T21:43:00.423Z,27.77
2023-04-18T21:45:28.623Z,28.40
2023-04-18T21:47:57.341Z,27.60
2023-04-18T21:50:25.812Z,28.83
2023-04-18T21:52:54.216Z,27.90
2023-04-18T21:55:22.779Z,28.13
2023-04-18T21:57:51.358Z,28.30
2023-04-18T22:00:21.801Z,26.70
2023-04-18T22:02:50.482Z,28.10
2023-04-18T22:05:20.097Z,28.03
2023-04-18T22:07:57.372Z,28.37
2023-04-18T22:10:27.062Z,28.20
2023-04-18T22:12:56.013Z,28.60
2023-04-18T22:15:27.020Z,28.93
2023-04-18T22:17:56.398Z,29.00
2023-04-18T22:20:26.757Z,29.07
2023-04-18T22:22:55.684Z,29.43
2023-04-18T22:25:23.956Z,28.47
2023-04-18T22:27:52.629Z,28.80
2023-04-18T22:30:21.668Z,28.93
2023-04-18T22:32:51.260Z,29.43
2023-04-18T22:35:19.866Z,30.17
2023-04-18T22:37:48.636Z,30.50
2023-04-18T22:40:17.223Z,29.57
2023-04-18T22:42:45.859Z,29.47
2023-04-18T22:45:14.653Z,28.77
2023-04-18T22:47:43.460Z,30.17
2023-04-18T22:50:13.932Z,30.30
2023-04-18T22:52:42.376Z,29.73
2023-04-18T22:55:11.415Z,29.93
2023-04-18T22:57:39.894Z,31.03
2023-04-18T23:00:11.123Z,31.03
2023-04-18T23:02:39.755Z,30.27
2023-04-18T23:05:10.789Z,28.77
2023-04-18T23:07:40.917Z,27.90
2023-04-18T23:10:10.503Z,28.87
2023-04-18T23:12:38.990Z,29.37
2023-04-18T23:15:08.287Z,28.60
2023-04-18T23:17:37.081Z,28.20
2023-04-18T23:20:06.893Z,28.00
2023-04-18T23:22:35.617Z,27.80
2023-04-18T23:25:05.705Z,27.77
2023-04-18T23:27:34.428Z,27.33
2023-04-18T23:30:02.901Z,27.07
2023-04-18T23:32:31.447Z,28.13
2023-04-18T23:35:04.078Z,27.27
2023-04-18T23:37:32.597Z,28.63
2023-04-18T23:40:01.294Z,26.53
2023-04-18T23:42:34.664Z,27.37
2023-04-18T23:45:03.998Z,27.27
2023-04-18T23:47:32.861Z,25.23
2023-04-18T23:50:01.634Z,27.07
2023-04-18T23:52:29.977Z,26.73
2023-04-18T23:55:01.365Z,26.80
2023-04-18T23:57:31.250Z,27.00
2023-04-18T23:59:59.630Z,26.57
